Time;durP1;ratioP1;P1;durP2;ratioP2;P2;SDS_P1;SDS_P2;PMS_P1;PMS_P2;Temp;Humidity;BMP_temperature;BMP_pressure;BME280_temperature;BME280_humidity;BME280_pressure;Samples;Min_cycle;Max_cycle;Signal;HPM_P1;HPM_P2
2022/01/31 00:02:10;;;;;;;9.68;6.95;;;;;;;;;;5005609;28;20113;-37
2022/01/31 00:04:35;;;;;;;10.38;7.32;;;;;;;;;;5005541;28;20117;-33
2022/01/31 00:07:02;;;;;;;10.80;6.65;;;;;;;;;;5005258;28;20826;-38
2022/01/31 00:09:27;;;;;;;9.07;6.65;;;;;;;;;;5005493;28;20030;-34
2022/01/31 00:12:04;;;;;;;12.57;7.43;;;;;;;;;;5005130;28;20095;-33
2022/01/31 00:14:40;;;;;;;9.75;6.50;;;;;;;;;;5004201;28;20038;-31
2022/01/31 00:17:06;;;;;;;12.65;6.55;;;;;;;;;;5005097;28;20030;-33
2022/01/31 00:19:32;;;;;;;11.85;7.30;;;;;;;;;;5005125;28;20026;-35
2022/01/31 00:21:58;;;;;;;11.05;6.47;;;;;;;;;;5005092;28;20112;-30
2022/01/31 00:24:23;;;;;;;9.15;6.70;;;;;;;;;;5005085;28;20057;-37
2022/01/31 00:26:49;;;;;;;10.27;6.68;;;;;;;;;;5004839;28;20029;-35
2022/01/31 00:29:14;;;;;;;11.63;6.85;;;;;;;;;;5004801;28;20039;-31
2022/01/31 00:31:40;;;;;;;8.57;6.32;;;;;;;;;;5004818;28;20030;-30
2022/01/31 00:34:05;;;;;;;8.63;5.72;;;;;;;;;;5004868;28;20046;-38
2022/01/31 00:36:31;;;;;;;8.38;5.90;;;;;;;;;;5005051;28;20121;-37
2022/01/31 00:38:56;;;;;;;9.82;5.72;;;;;;;;;;5004796;28;20030;-30
2022/01/31 00:41:22;;;;;;;7.80;5.35;;;;;;;;;;5000568;28;20058;-38
2022/01/31 00:43:58;;;;;;;8.73;5.80;;;;;;;;;;4984939;28;20409;-35
2022/01/31 00:46:30;;;;;;;9.82;5.13;;;;;;;;;;4985497;28;20061;-31
2022/01/31 00:48:56;;;;;;;9.77;5.10;;;;;;;;;;4985368;28;20084;-29
2022/01/31 00:51:21;;;;;;;9.70;5.57;;;;;;;;;;4985271;28;20109;-34
2022/01/31 00:53:47;;;;;;;8.15;5.07;;;;;;;;;;4985029;28;20037;-32
2022/01/31 00:56:12;;;;;;;8.68;5.32;;;;;;;;;;4985101;28;20109;-37
2022/01/31 00:58:38;;;;;;;7.40;4.82;;;;;;;;;;4985278;28;20038;-32
2022/01/31 01:01:03;;;;;;;7.53;4.50;;;;;;;;;;4985091;28;20027;-33
2022/01/31 01:03:29;;;;;;;7.55;4.90;;;;;;;;;;4985314;28;20112;-34
2022/01/31 01:05:54;;;;;;;6.75;4.88;;;;;;;;;;4984950;28;20038;-35
2022/01/31 01:08:20;;;;;;;7.18;4.88;;;;;;;;;;4985166;28;20469;-32
2022/01/31 01:10:46;;;;;;;7.50;4.53;;;;;;;;;;4984861;28;20421;-37
2022/01/31 01:13:11;;;;;;;7.93;4.88;;;;;;;;;;4984965;28;20022;-30
2022/01/31 01:15:37;;;;;;;7.68;4.65;;;;;;;;;;4985514;28;20133;-34
2022/01/31 01:18:03;;;;;;;7.22;4.65;;;;;;;;;;4985169;28;20030;-32
2022/01/31 01:20:29;;;;;;;8.60;4.72;;;;;;;;;;4984955;28;20041;-34
2022/01/31 01:22:54;;;;;;;8.02;4.68;;;;;;;;;;4984970;28;20058;-33
2022/01/31 01:25:20;;;;;;;7.90;4.32;;;;;;;;;;4985342;28;20418;-36
2022/01/31 01:27:49;;;;;;;10.10;4.30;;;;;;;;;;4988139;28;20033;-30
2022/01/31 01:30:15;;;;;;;6.47;4.47;;;;;;;;;;4988188;28;20041;-37
2022/01/31 01:35:21;;;;;;;6.80;4.18;;;;;;;;;;5004299;28;20050;-30
2022/01/31 01:37:47;;;;;;;6.93;3.72;;;;;;;;;;5007387;28;20041;-32
2022/01/31 01:40:13;;;;;;;6.95;4.00;;;;;;;;;;5007689;28;20030;-29
2022/01/31 01:42:41;;;;;;;7.13;4.40;;;;;;;;;;5007110;28;20022;-35
2022/01/31 01:45:06;;;;;;;6.38;3.80;;;;;;;;;;5007802;28;20527;-34
2022/01/31 01:47:32;;;;;;;6.25;4.07;;;;;;;;;;5007559;28;20018;-32
2022/01/31 01:49:58;;;;;;;7.80;4.30;;;;;;;;;;5007506;28;20104;-31
2022/01/31 01:52:23;;;;;;;6.28;4.10;;;;;;;;;;5007550;28;20022;-30
2022/01/31 01:54:49;;;;;;;6.13;4.03;;;;;;;;;;5007591;28;20029;-32
2022/01/31 01:57:15;;;;;;;6.70;3.95;;;;;;;;;;5007497;28;20608;-34
2022/01/31 01:59:41;;;;;;;7.90;3.67;;;;;;;;;;5007329;28;20109;-32
2022/01/31 02:02:07;;;;;;;5.32;3.17;;;;;;;;;;5007702;28;20026;-30
2022/01/31 02:04:33;;;;;;;5.25;3.33;;;;;;;;;;5006496;28;20033;-32
2022/01/31 02:06:58;;;;;;;6.00;3.38;;;;;;;;;;5005915;28;20030;-31
2022/01/31 02:09:27;;;;;;;5.60;3.55;;;;;;;;;;5007613;28;20034;-33
2022/01/31 02:11:57;;;;;;;6.43;3.47;;;;;;;;;;5007042;28;20058;-36
2022/01/31 02:14:23;;;;;;;6.32;3.33;;;;;;;;;;5007402;28;20065;-35
2022/01/31 02:16:50;;;;;;;5.43;3.20;;;;;;;;;;5007160;28;20033;-31
2022/01/31 02:19:17;;;;;;;6.22;3.25;;;;;;;;;;5005670;28;20037;-35
2022/01/31 02:21:43;;;;;;;5.60;3.17;;;;;;;;;;5005378;28;20061;-30
2022/01/31 02:24:09;;;;;;;4.97;3.00;;;;;;;;;;5006932;28;20038;-30
2022/01/31 02:26:34;;;;;;;6.75;2.75;;;;;;;;;;5007045;28;20034;-35
2022/01/31 02:29:00;;;;;;;5.75;3.42;;;;;;;;;;5006918;28;20041;-37
2022/01/31 02:31:26;;;;;;;4.18;3.10;;;;;;;;;;5006705;28;20026;-32
2022/01/31 02:33:51;;;;;;;4.85;3.03;;;;;;;;;;5006222;28;20053;-35
2022/01/31 02:36:17;;;;;;;6.10;3.38;;;;;;;;;;5006970;28;20041;-38
2022/01/31 02:38:42;;;;;;;4.43;3.10;;;;;;;;;;5005510;28;20419;-35
2022/01/31 02:41:08;;;;;;;5.45;3.45;;;;;;;;;;5004338;28;20037;-31
2022/01/31 02:43:34;;;;;;;5.38;3.03;;;;;;;;;;5006641;28;20025;-35
2022/01/31 02:45:59;;;;;;;6.70;2.92;;;;;;;;;;5006416;28;20441;-36
2022/01/31 02:48:27;;;;;;;4.65;2.72;;;;;;;;;;5006920;28;20088;-33
2022/01/31 02:50:53;;;;;;;7.07;3.20;;;;;;;;;;5006375;28;20083;-31
2022/01/31 02:53:27;;;;;;;5.65;2.78;;;;;;;;;;5006468;28;20599;-31
2022/01/31 02:55:54;;;;;;;4.32;2.70;;;;;;;;;;5006152;28;20014;-32
2022/01/31 02:58:19;;;;;;;4.95;2.60;;;;;;;;;;5006395;28;20018;-29
2022/01/31 03:00:45;;;;;;;10.30;3.13;;;;;;;;;;5006090;28;20531;-37
2022/01/31 03:03:11;;;;;;;5.10;2.83;;;;;;;;;;5006349;28;20064;-29
2022/01/31 03:05:36;;;;;;;5.55;2.47;;;;;;;;;;5006311;28;20049;-34
2022/01/31 03:08:03;;;;;;;5.57;2.85;;;;;;;;;;5006084;28;20100;-34
2022/01/31 03:10:29;;;;;;;5.13;2.67;;;;;;;;;;5005840;28;20906;-33
2022/01/31 03:12:54;;;;;;;3.70;2.40;;;;;;;;;;5005895;28;20112;-35
2022/01/31 03:15:20;;;;;;;5.18;2.58;;;;;;;;;;5006223;28;20037;-37
2022/01/31 03:17:50;;;;;;;4.85;2.67;;;;;;;;;;5005838;28;20459;-31
2022/01/31 03:20:16;;;;;;;3.50;2.38;;;;;;;;;;5005930;28;20385;-35
2022/01/31 03:22:42;;;;;;;3.63;2.22;;;;;;;;;;5005556;28;20100;-34
2022/01/31 03:25:08;;;;;;;3.72;2.30;;;;;;;;;;5006063;28;20171;-35
2022/01/31 03:27:34;;;;;;;3.38;2.03;;;;;;;;;;5005881;28;20033;-39
2022/01/31 03:29:59;;;;;;;3.72;2.28;;;;;;;;;;5005511;28;20202;-33
2022/01/31 03:32:25;;;;;;;5.88;2.40;;;;;;;;;;5005812;28;20029;-35
2022/01/31 03:34:50;;;;;;;4.43;2.40;;;;;;;;;;5005466;28;20582;-36
2022/01/31 03:37:16;;;;;;;4.38;2.28;;;;;;;;;;5005536;28;20033;-31
2022/01/31 03:39:41;;;;;;;3.90;1.92;;;;;;;;;;5005420;28;20512;-36
2022/01/31 03:42:07;;;;;;;4.22;2.40;;;;;;;;;;4994823;28;20038;-32
2022/01/31 03:44:32;;;;;;;5.05;2.05;;;;;;;;;;4985892;28;20022;-31
2022/01/31 03:46:58;;;;;;;4.43;2.25;;;;;;;;;;4985790;28;20084;-31
2022/01/31 03:49:24;;;;;;;4.30;2.15;;;;;;;;;;4985847;28;20037;-38
2022/01/31 03:51:49;;;;;;;3.83;2.10;;;;;;;;;;4985491;28;20034;-31
2022/01/31 03:54:14;;;;;;;4.35;2.05;;;;;;;;;;4985931;28;20030;-37
2022/01/31 03:56:41;;;;;;;3.30;1.98;;;;;;;;;;4985776;28;20022;-32
2022/01/31 03:59:06;;;;;;;4.13;2.00;;;;;;;;;;4985831;28;20048;-34
2022/01/31 04:01:32;;;;;;;3.97;2.28;;;;;;;;;;4985809;28;20113;-35
2022/01/31 04:03:57;;;;;;;2.85;1.52;;;;;;;;;;4985669;28;20065;-36
2022/01/31 04:06:23;;;;;;;2.55;1.80;;;;;;;;;;4985540;28;20453;-33
2022/01/31 04:08:50;;;;;;;3.22;1.90;;;;;;;;;;4985497;28;20553;-32
2022/01/31 04:11:15;;;;;;;4.05;2.10;;;;;;;;;;4985575;28;20026;-35
2022/01/31 04:13:41;;;;;;;4.45;2.00;;;;;;;;;;4985257;28;20030;-31
2022/01/31 04:16:06;;;;;;;3.55;1.88;;;;;;;;;;4986064;28;20035;-32
2022/01/31 04:18:32;;;;;;;2.55;1.60;;;;;;;;;;4985699;28;20026;-37
2022/01/31 04:20:57;;;;;;;3.75;1.50;;;;;;;;;;4985576;28;20057;-37
2022/01/31 04:23:27;;;;;;;2.72;1.52;;;;;;;;;;4985344;28;20035;-32
2022/01/31 04:25:55;;;;;;;2.95;1.65;;;;;;;;;;4985468;28;20073;-33
2022/01/31 04:28:31;;;;;;;6.13;1.83;;;;;;;;;;4985757;28;20026;-31
2022/01/31 04:30:59;;;;;;;2.67;1.77;;;;;;;;;;4985515;28;20030;-36
2022/01/31 04:33:26;;;;;;;2.95;1.90;;;;;;;;;;4985259;28;20128;-39
2022/01/31 04:35:51;;;;;;;3.30;1.77;;;;;;;;;;4984864;28;20058;-35
2022/01/31 04:38:17;;;;;;;2.53;1.42;;;;;;;;;;4985640;28;20026;-36
2022/01/31 04:40:43;;;;;;;2.15;1.42;;;;;;;;;;4985439;28;20453;-38
2022/01/31 04:43:08;;;;;;;1.48;1.17;;;;;;;;;;5004475;28;20100;-31
2022/01/31 04:45:34;;;;;;;2.25;1.45;;;;;;;;;;5004643;28;20109;-36
2022/01/31 04:47:59;;;;;;;2.60;1.50;;;;;;;;;;5004823;28;20045;-33
2022/01/31 04:50:25;;;;;;;2.40;1.42;;;;;;;;;;5003306;28;20030;-31
2022/01/31 04:52:51;;;;;;;4.88;1.80;;;;;;;;;;5004829;28;20144;-35
2022/01/31 04:55:16;;;;;;;4.68;1.70;;;;;;;;;;5005089;28;20030;-32
2022/01/31 04:57:42;;;;;;;2.95;1.73;;;;;;;;;;5005161;28;20476;-37
2022/01/31 05:00:08;;;;;;;3.65;1.58;;;;;;;;;;5005068;28;20412;-34
2022/01/31 05:02:34;;;;;;;2.72;1.58;;;;;;;;;;5008808;28;20141;-31
2022/01/31 05:05:00;;;;;;;2.65;1.60;;;;;;;;;;5008383;28;20030;-35
2022/01/31 05:07:26;;;;;;;3.60;1.80;;;;;;;;;;5007254;28;20029;-36
2022/01/31 05:09:51;;;;;;;4.28;1.45;;;;;;;;;;4999395;28;20539;-33
2022/01/31 05:12:17;;;;;;;2.65;1.38;;;;;;;;;;5007321;28;20100;-31
2022/01/31 05:14:42;;;;;;;2.78;1.60;;;;;;;;;;5008465;28;20029;-33
2022/01/31 05:17:09;;;;;;;2.50;1.30;;;;;;;;;;5008429;28;20091;-35
2022/01/31 05:19:34;;;;;;;3.28;1.67;;;;;;;;;;5007190;28;20042;-34
2022/01/31 05:22:00;;;;;;;2.45;1.40;;;;;;;;;;4996125;28;20053;-32
2022/01/31 05:24:26;;;;;;;2.45;1.23;;;;;;;;;;4988497;28;20086;-31
2022/01/31 05:26:53;;;;;;;2.58;1.60;;;;;;;;;;5000586;28;20033;-33
2022/01/31 05:29:19;;;;;;;2.17;1.30;;;;;;;;;;5009019;28;20069;-36
2022/01/31 05:31:44;;;;;;;7.15;1.60;;;;;;;;;;5015290;28;20032;-38
2022/01/31 05:34:11;;;;;;;5.85;1.50;;;;;;;;;;4997456;28;20053;-30
2022/01/31 05:36:37;;;;;;;4.13;1.50;;;;;;;;;;4994158;28;20030;-31
2022/01/31 05:39:02;;;;;;;6.68;1.52;;;;;;;;;;5001088;28;20381;-35
2022/01/31 05:41:28;;;;;;;8.20;1.25;;;;;;;;;;4999167;28;20068;-31
2022/01/31 05:43:53;;;;;;;2.42;1.42;;;;;;;;;;4994248;28;20607;-37
2022/01/31 05:46:19;;;;;;;6.93;1.85;;;;;;;;;;4997298;28;20603;-30
2022/01/31 05:48:44;;;;;;;3.60;1.60;;;;;;;;;;4996523;28;20034;-31
2022/01/31 05:51:17;;;;;;;4.28;1.50;;;;;;;;;;4993149;28;20170;-31
2022/01/31 05:53:43;;;;;;;5.32;2.55;;;;;;;;;;5004874;28;20030;-29
2022/01/31 05:56:09;;;;;;;7.55;2.22;;;;;;;;;;5005174;28;20108;-30
2022/01/31 05:58:35;;;;;;;8.65;1.98;;;;;;;;;;4990149;28;20110;-35
2022/01/31 06:01:00;;;;;;;8.80;2.00;;;;;;;;;;4992601;28;20022;-32
2022/01/31 06:03:26;;;;;;;11.40;1.60;;;;;;;;;;5001187;28;20029;-33
2022/01/31 06:05:51;;;;;;;6.13;1.63;;;;;;;;;;5004190;28;20034;-32
2022/01/31 06:08:17;;;;;;;9.45;2.13;;;;;;;;;;5003955;28;20476;-33
2022/01/31 06:10:45;;;;;;;3.72;1.70;;;;;;;;;;5002313;28;20088;-30
2022/01/31 06:13:11;;;;;;;7.15;1.98;;;;;;;;;;4985372;28;20105;-31
2022/01/31 06:15:36;;;;;;;4.80;1.65;;;;;;;;;;5003703;28;20657;-33
2022/01/31 06:18:02;;;;;;;5.05;1.63;;;;;;;;;;5003343;28;20104;-37
2022/01/31 06:20:28;;;;;;;7.57;2.10;;;;;;;;;;5002078;28;20027;-33
2022/01/31 06:22:53;;;;;;;3.97;1.65;;;;;;;;;;5003776;28;20055;-33
2022/01/31 06:25:19;;;;;;;5.55;1.80;;;;;;;;;;4996392;28;20035;-32
2022/01/31 06:27:45;;;;;;;9.20;1.80;;;;;;;;;;4998507;28;20534;-33
2022/01/31 06:30:11;;;;;;;3.13;1.40;;;;;;;;;;5001640;28;20030;-32
2022/01/31 06:32:37;;;;;;;5.13;1.70;;;;;;;;;;4988231;28;20181;-35
2022/01/31 06:35:03;;;;;;;7.47;1.75;;;;;;;;;;5003137;28;20054;-35
2022/01/31 06:37:28;;;;;;;5.47;1.50;;;;;;;;;;5003074;28;20048;-32
2022/01/31 06:39:54;;;;;;;2.95;1.60;;;;;;;;;;5001360;28;20026;-30
2022/01/31 06:42:20;;;;;;;3.75;1.63;;;;;;;;;;4988804;28;20027;-33
2022/01/31 06:44:45;;;;;;;3.85;1.65;;;;;;;;;;4983957;28;20030;-36
2022/01/31 06:47:10;;;;;;;2.92;1.45;;;;;;;;;;4984930;28;20034;-35
2022/01/31 06:49:36;;;;;;;2.25;1.38;;;;;;;;;;4984390;28;20488;-29
2022/01/31 06:52:02;;;;;;;4.63;1.48;;;;;;;;;;4995200;28;20044;-31
2022/01/31 06:54:28;;;;;;;7.88;2.13;;;;;;;;;;5001611;28;20057;-36
2022/01/31 06:56:56;;;;;;;3.40;1.60;;;;;;;;;;5003478;28;20644;-37
2022/01/31 06:59:22;;;;;;;5.50;1.45;;;;;;;;;;5002916;28;20049;-30
2022/01/31 07:01:47;;;;;;;3.80;1.58;;;;;;;;;;5002754;28;20080;-30
2022/01/31 07:04:13;;;;;;;5.90;1.75;;;;;;;;;;5003755;28;20025;-32
2022/01/31 07:06:38;;;;;;;3.00;1.58;;;;;;;;;;5004380;28;20105;-36
2022/01/31 07:09:04;;;;;;;3.75;1.63;;;;;;;;;;5003696;28;20041;-31
2022/01/31 07:11:34;;;;;;;5.38;1.75;;;;;;;;;;5003958;28;20026;-33
2022/01/31 07:14:03;;;;;;;4.40;1.48;;;;;;;;;;5003616;28;20037;-31
2022/01/31 07:16:29;;;;;;;2.60;1.20;;;;;;;;;;5003827;28;20026;-34
2022/01/31 07:19:02;;;;;;;3.90;1.60;;;;;;;;;;5000464;28;20030;-35
2022/01/31 07:21:34;;;;;;;6.05;1.65;;;;;;;;;;5002137;28;20034;-33
2022/01/31 07:24:16;;;;;;;4.93;1.50;;;;;;;;;;5002459;28;20037;-33
2022/01/31 07:26:43;;;;;;;6.50;1.63;;;;;;;;;;5003548;28;20108;-33
2022/01/31 07:29:09;;;;;;;5.15;1.70;;;;;;;;;;5003745;28;20040;-32
2022/01/31 07:31:35;;;;;;;3.15;1.40;;;;;;;;;;4998708;28;20121;-34
2022/01/31 07:34:00;;;;;;;3.22;1.40;;;;;;;;;;5002827;28;20084;-31
2022/01/31 07:36:26;;;;;;;8.05;1.60;;;;;;;;;;5003112;28;20054;-35
2022/01/31 07:38:51;;;;;;;5.47;1.50;;;;;;;;;;5001329;28;20030;-35
2022/01/31 07:41:17;;;;;;;8.70;1.52;;;;;;;;;;4997571;28;20030;-34
2022/01/31 07:43:44;;;;;;;2.55;1.40;;;;;;;;;;5001559;28;20872;-30
2022/01/31 07:46:12;;;;;;;2.85;1.42;;;;;;;;;;5002309;28;20067;-32
2022/01/31 07:48:37;;;;;;;4.40;1.40;;;;;;;;;;4998692;28;20033;-31
2022/01/31 07:51:03;;;;;;;5.82;1.55;;;;;;;;;;5004282;28;20029;-30
2022/01/31 07:53:28;;;;;;;7.50;1.52;;;;;;;;;;5006795;28;20069;-33
2022/01/31 07:55:54;;;;;;;8.52;1.88;;;;;;;;;;5001890;28;20026;-33
2022/01/31 07:58:20;;;;;;;6.20;1.52;;;;;;;;;;4999962;28;20049;-30
2022/01/31 08:00:45;;;;;;;14.82;5.97;;;;;;;;;;5002159;28;20489;-33
2022/01/31 08:03:11;;;;;;;10.20;2.72;;;;;;;;;;5002155;28;20030;-38
2022/01/31 08:05:36;;;;;;;9.77;2.55;;;;;;;;;;4993854;28;20516;-34
2022/01/31 08:08:02;;;;;;;9.68;2.55;;;;;;;;;;5001749;28;20026;-36
2022/01/31 08:10:27;;;;;;;6.55;2.28;;;;;;;;;;4999566;28;20117;-32
2022/01/31 08:12:55;;;;;;;5.82;2.25;;;;;;;;;;5001985;28;20464;-34
2022/01/31 08:15:26;;;;;;;12.52;2.10;;;;;;;;;;5002251;28;20076;-38
2022/01/31 08:17:51;;;;;;;8.80;2.20;;;;;;;;;;5002357;28;20030;-32
2022/01/31 08:20:17;;;;;;;7.82;2.20;;;;;;;;;;5001207;28;20047;-36
2022/01/31 08:22:42;;;;;;;5.35;1.90;;;;;;;;;;4997066;28;20049;-31
2022/01/31 08:25:13;;;;;;;7.80;2.22;;;;;;;;;;4998784;28;20116;-36
2022/01/31 08:27:41;;;;;;;8.00;1.88;;;;;;;;;;5001246;28;20037;-38
2022/01/31 08:30:11;;;;;;;5.15;2.00;;;;;;;;;;5002723;28;20041;-31
2022/01/31 08:32:44;;;;;;;4.43;2.03;;;;;;;;;;5002979;28;20478;-33
2022/01/31 08:37:55;;;;;;;5.68;1.80;;;;;;;;;;5006737;28;20044;-37
2022/01/31 08:40:21;;;;;;;11.20;1.90;;;;;;;;;;5002308;28;20456;-40
2022/01/31 08:42:46;;;;;;;5.35;2.10;;;;;;;;;;5010962;28;20036;-34
2022/01/31 08:45:12;;;;;;;4.78;1.90;;;;;;;;;;5010507;28;20068;-33
2022/01/31 08:47:41;;;;;;;4.85;1.88;;;;;;;;;;5006485;28;20045;-32
2022/01/31 08:50:10;;;;;;;7.85;1.92;;;;;;;;;;5006077;28;20116;-30
2022/01/31 08:52:36;;;;;;;2.70;1.60;;;;;;;;;;5006371;28;20029;-32
2022/01/31 08:55:01;;;;;;;6.28;1.70;;;;;;;;;;5005683;28;20189;-35
2022/01/31 08:57:27;;;;;;;7.20;1.80;;;;;;;;;;5005585;28;20030;-31
2022/01/31 08:59:52;;;;;;;2.38;1.60;;;;;;;;;;5004015;28;20045;-32
2022/01/31 09:02:25;;;;;;;2.47;1.27;;;;;;;;;;5004753;28;20092;-31
2022/01/31 09:04:51;;;;;;;4.53;1.80;;;;;;;;;;5005895;28;20125;-36
2022/01/31 09:07:21;;;;;;;4.93;1.27;;;;;;;;;;5006037;28;20044;-29
2022/01/31 09:09:53;;;;;;;5.15;1.70;;;;;;;;;;5005283;28;20037;-34
2022/01/31 09:12:20;;;;;;;5.28;1.42;;;;;;;;;;5005086;28;20521;-31
2022/01/31 09:14:45;;;;;;;4.93;1.42;;;;;;;;;;4993712;28;20588;-34
2022/01/31 09:17:11;;;;;;;4.72;1.55;;;;;;;;;;4992379;28;20510;-34
2022/01/31 09:19:36;;;;;;;4.53;1.60;;;;;;;;;;4992398;28;20030;-30
2022/01/31 09:22:03;;;;;;;4.07;1.52;;;;;;;;;;4999296;28;20125;-33
2022/01/31 09:24:29;;;;;;;3.88;1.63;;;;;;;;;;4987353;28;20038;-31
2022/01/31 09:26:55;;;;;;;4.47;1.52;;;;;;;;;;4986315;28;20122;-32
2022/01/31 09:29:20;;;;;;;6.82;1.60;;;;;;;;;;4994494;28;20475;-34
2022/01/31 09:31:46;;;;;;;3.10;1.45;;;;;;;;;;4998900;28;20030;-32
2022/01/31 09:34:11;;;;;;;2.88;1.40;;;;;;;;;;4994568;28;20068;-35
2022/01/31 09:36:37;;;;;;;4.07;1.50;;;;;;;;;;4996618;28;20129;-35
2022/01/31 09:39:03;;;;;;;2.90;1.40;;;;;;;;;;4997696;28;20405;-33
2022/01/31 09:41:30;;;;;;;2.67;1.63;;;;;;;;;;4993368;28;20027;-36
2022/01/31 09:44:12;;;;;;;5.40;1.80;;;;;;;;;;5001630;28;20836;-33
2022/01/31 09:49:18;;;;;;;4.30;1.52;;;;;;;;;;4986099;28;20497;-35
2022/01/31 09:51:44;;;;;;;2.88;1.58;;;;;;;;;;4995556;28;20044;-35
2022/01/31 09:54:09;;;;;;;3.25;1.52;;;;;;;;;;5004836;28;20141;-33
2022/01/31 09:56:39;;;;;;;3.92;1.73;;;;;;;;;;5004673;28;20030;-31
2022/01/31 09:59:06;;;;;;;2.38;1.40;;;;;;;;;;4988090;28;20030;-36
2022/01/31 10:01:58;;;;;;;4.25;1.60;;;;;;;;;;4984177;28;20035;-36
2022/01/31 10:04:25;;;;;;;3.80;1.47;;;;;;;;;;5000023;28;20401;-36
2022/01/31 10:06:53;;;;;;;2.55;1.52;;;;;;;;;;4993185;28;20030;-35
2022/01/31 10:09:22;;;;;;;5.97;1.42;;;;;;;;;;4986939;28;20090;-34
2022/01/31 10:11:51;;;;;;;5.38;1.90;;;;;;;;;;5004363;28;20030;-34
2022/01/31 10:17:04;;;;;;;3.13;1.38;;;;;;;;;;5004576;28;20707;-30
2022/01/31 10:19:29;;;;;;;9.10;1.80;;;;;;;;;;5006934;28;20034;-33
2022/01/31 10:21:56;;;;;;;8.40;2.42;;;;;;;;;;5022232;28;20060;-39
2022/01/31 10:24:23;;;;;;;12.10;1.90;;;;;;;;;;5023914;28;20079;-34
2022/01/31 10:26:48;;;;;;;9.57;2.15;;;;;;;;;;5023681;28;20033;-32
2022/01/31 10:29:15;;;;;;;3.58;1.65;;;;;;;;;;5023932;28;20474;-35
2022/01/31 10:32:10;;;;;;;7.20;2.22;;;;;;;;;;5023795;28;20057;-31
2022/01/31 10:34:46;;;;;;;4.47;1.50;;;;;;;;;;5020121;28;20042;-34
2022/01/31 10:37:15;;;;;;;5.95;1.92;;;;;;;;;;5004391;28;20022;-34
2022/01/31 10:53:06;;;;;;;13.70;2.75;;;;;;;;;;5004159;28;20030;-31
2022/01/31 10:55:32;;;;;;;9.00;2.63;;;;;;;;;;5004324;28;20100;-33
2022/01/31 10:58:04;;;;;;;9.45;2.22;;;;;;;;;;5003097;28;20477;-33
2022/01/31 11:00:37;;;;;;;8.95;2.63;;;;;;;;;;5003916;28;20042;-35
2022/01/31 11:03:29;;;;;;;13.55;2.63;;;;;;;;;;5004181;28;20034;-34
2022/01/31 11:05:55;;;;;;;19.55;4.85;;;;;;;;;;5003842;28;20066;-32
2022/01/31 11:08:20;;;;;;;20.63;5.57;;;;;;;;;;5003958;28;20598;-34
2022/01/31 11:10:46;;;;;;;28.02;8.70;;;;;;;;;;5003822;28;20531;-34
2022/01/31 11:13:12;;;;;;;23.60;7.93;;;;;;;;;;5003693;28;20115;-32
2022/01/31 11:15:37;;;;;;;19.75;6.97;;;;;;;;;;4975757;28;20109;-33
2022/01/31 11:18:06;;;;;;;23.25;6.47;;;;;;;;;;5010355;28;20814;-37
2022/01/31 11:20:31;;;;;;;28.52;7.13;;;;;;;;;;5000456;28;20034;-32
2022/01/31 11:22:58;;;;;;;15.32;6.20;;;;;;;;;;4983271;28;20088;-31
2022/01/31 11:25:26;;;;;;;19.13;5.70;;;;;;;;;;5003582;28;20178;-34
2022/01/31 11:27:53;;;;;;;16.33;5.82;;;;;;;;;;5001514;28;20069;-32
2022/01/31 11:30:20;;;;;;;10.93;4.65;;;;;;;;;;5003263;28;20038;-37
2022/01/31 11:32:46;;;;;;;14.85;4.88;;;;;;;;;;5001499;28;20066;-35
2022/01/31 11:35:11;;;;;;;14.30;5.05;;;;;;;;;;4998004;28;20117;-38
2022/01/31 11:37:37;;;;;;;14.27;5.13;;;;;;;;;;4999064;28;20109;-37
2022/01/31 11:40:08;;;;;;;10.10;4.20;;;;;;;;;;5001732;28;20467;-33
2022/01/31 11:42:34;;;;;;;11.50;4.90;;;;;;;;;;5003040;28;20431;-35
2022/01/31 11:45:01;;;;;;;10.20;4.13;;;;;;;;;;5002404;28;20030;-30
2022/01/31 11:47:28;;;;;;;12.85;4.22;;;;;;;;;;5000800;28;20111;-38
2022/01/31 11:49:56;;;;;;;13.43;4.60;;;;;;;;;;5003092;28;20026;-36
2022/01/31 11:52:22;;;;;;;10.15;4.03;;;;;;;;;;5002953;28;20123;-32
2022/01/31 11:54:56;;;;;;;12.23;3.80;;;;;;;;;;4999296;28;20113;-34
2022/01/31 11:57:30;;;;;;;8.43;3.75;;;;;;;;;;5001831;28;20072;-34
2022/01/31 12:00:07;;;;;;;11.73;3.92;;;;;;;;;;4997854;28;20037;-29
2022/01/31 12:02:40;;;;;;;10.10;4.07;;;;;;;;;;4983819;28;20041;-35
2022/01/31 12:05:08;;;;;;;9.95;3.50;;;;;;;;;;4996591;28;20032;-33
2022/01/31 12:07:39;;;;;;;8.82;3.80;;;;;;;;;;4997071;28;20479;-35
2022/01/31 12:10:33;;;;;;;11.63;3.53;;;;;;;;;;5000168;28;20507;-36
2022/01/31 12:13:11;;;;;;;9.65;3.88;;;;;;;;;;4987763;28;20888;-34
2022/01/31 12:24:31;;;;;;;9.30;3.55;;;;;;;;;;4984015;28;20085;-38
2022/01/31 12:27:04;;;;;;;11.32;4.03;;;;;;;;;;5002639;28;20046;-38
2022/01/31 12:29:30;;;;;;;11.27;3.80;;;;;;;;;;4998049;28;20262;-33
2022/01/31 12:31:56;;;;;;;15.27;4.18;;;;;;;;;;4993572;28;20132;-36
2022/01/31 12:34:27;;;;;;;10.57;4.38;;;;;;;;;;4991048;28;20133;-35
2022/01/31 12:36:57;;;;;;;9.20;4.07;;;;;;;;;;4993372;28;20038;-33
2022/01/31 12:39:35;;;;;;;9.23;4.43;;;;;;;;;;4989055;28;20034;-36
2022/01/31 12:42:04;;;;;;;11.23;3.80;;;;;;;;;;5002462;28;20040;-33
2022/01/31 12:44:32;;;;;;;12.50;4.65;;;;;;;;;;5002207;28;20029;-33
2022/01/31 12:47:07;;;;;;;11.82;4.85;;;;;;;;;;4995359;28;20034;-36
2022/01/31 12:49:33;;;;;;;10.88;4.10;;;;;;;;;;5002817;28;20030;-32
2022/01/31 12:52:03;;;;;;;10.23;4.03;;;;;;;;;;4995166;28;20026;-36
2022/01/31 12:54:29;;;;;;;11.07;4.80;;;;;;;;;;4999701;28;20030;-36
2022/01/31 12:56:54;;;;;;;9.18;4.05;;;;;;;;;;5001830;28;20029;-31
2022/01/31 12:59:20;;;;;;;8.73;4.20;;;;;;;;;;5000767;28;20030;-34
2022/01/31 13:01:48;;;;;;;11.50;4.25;;;;;;;;;;4995972;28;20034;-37
2022/01/31 13:04:24;;;;;;;7.32;4.03;;;;;;;;;;4996122;28;20100;-37
2022/01/31 13:06:54;;;;;;;12.02;4.00;;;;;;;;;;4991876;28;20591;-34
2022/01/31 13:09:30;;;;;;;8.32;4.30;;;;;;;;;;4982709;28;20030;-34
2022/01/31 13:11:57;;;;;;;10.60;3.97;;;;;;;;;;4996184;28;20038;-35
2022/01/31 13:14:30;;;;;;;12.30;4.10;;;;;;;;;;5000809;28;20057;-33
2022/01/31 13:17:05;;;;;;;9.38;3.63;;;;;;;;;;4999815;28;20040;-32
2022/01/31 13:19:34;;;;;;;8.23;3.42;;;;;;;;;;5002547;28;20100;-32
2022/01/31 13:22:06;;;;;;;9.05;3.17;;;;;;;;;;5002632;28;20438;-29
2022/01/31 13:25:10;;;;;;;7.60;3.08;;;;;;;;;;5005675;28;20034;-33
2022/01/31 13:27:41;;;;;;;6.38;3.40;;;;;;;;;;5005804;28;20038;-33
2022/01/31 13:30:28;;;;;;;7.40;2.95;;;;;;;;;;5004025;28;20034;-31
2022/01/31 13:32:54;;;;;;;7.57;3.50;;;;;;;;;;4998903;28;20057;-35
2022/01/31 13:35:25;;;;;;;8.75;2.95;;;;;;;;;;5003314;28;20515;-33
2022/01/31 13:37:51;;;;;;;5.60;2.70;;;;;;;;;;5002728;28;20033;-31
2022/01/31 13:40:37;;;;;;;6.03;2.55;;;;;;;;;;4986220;28;20053;-36
2022/01/31 13:43:09;;;;;;;8.30;2.97;;;;;;;;;;4994715;28;20025;-33
2022/01/31 13:45:41;;;;;;;10.30;2.60;;;;;;;;;;4990733;28;20030;-32
2022/01/31 13:48:17;;;;;;;5.60;2.33;;;;;;;;;;4989636;28;20038;-32
2022/01/31 13:50:44;;;;;;;5.85;2.40;;;;;;;;;;4986011;28;20587;-35
2022/01/31 13:53:17;;;;;;;5.38;2.67;;;;;;;;;;4999766;28;20083;-34
2022/01/31 13:55:51;;;;;;;4.28;2.63;;;;;;;;;;4993362;28;20086;-33
2022/01/31 13:58:24;;;;;;;4.60;2.60;;;;;;;;;;4989186;28;20504;-34
2022/01/31 14:00:49;;;;;;;6.07;2.60;;;;;;;;;;4999133;28;20026;-33
2022/01/31 14:03:16;;;;;;;6.90;2.60;;;;;;;;;;4993571;28;20034;-32
2022/01/31 14:05:55;;;;;;;8.48;2.42;;;;;;;;;;5003194;28;20471;-35
2022/01/31 14:08:36;;;;;;;6.35;2.58;;;;;;;;;;5002711;28;20033;-33
2022/01/31 14:11:16;;;;;;;6.25;2.35;;;;;;;;;;5004176;28;20424;-36
2022/01/31 14:13:51;;;;;;;5.95;2.30;;;;;;;;;;5004597;28;20030;-31
2022/01/31 14:16:28;;;;;;;4.82;2.28;;;;;;;;;;5004656;28;20057;-38
2022/01/31 14:18:58;;;;;;;7.95;2.63;;;;;;;;;;5002038;28;20022;-35
2022/01/31 14:21:24;;;;;;;8.43;2.53;;;;;;;;;;5012331;28;20037;-33
2022/01/31 14:23:51;;;;;;;7.85;2.25;;;;;;;;;;5004533;28;20044;-34
2022/01/31 14:26:42;;;;;;;4.50;2.10;;;;;;;;;;5002421;28;20105;-36
2022/01/31 14:29:10;;;;;;;5.53;2.10;;;;;;;;;;5003100;28;20026;-32
2022/01/31 14:31:40;;;;;;;4.60;1.95;;;;;;;;;;4999304;28;20030;-30
2022/01/31 14:34:07;;;;;;;8.27;2.40;;;;;;;;;;4983129;28;20532;-32
2022/01/31 14:36:36;;;;;;;8.18;2.00;;;;;;;;;;4987846;28;20856;-32
2022/01/31 14:39:24;;;;;;;9.30;1.90;;;;;;;;;;4992553;28;20493;-33
2022/01/31 14:42:12;;;;;;;4.88;1.88;;;;;;;;;;5001582;28;20033;-31
2022/01/31 14:47:47;;;;;;;4.63;1.80;;;;;;;;;;5010776;28;20515;-33
2022/01/31 14:50:14;;;;;;;5.68;1.88;;;;;;;;;;5002911;28;20544;-32
2022/01/31 14:52:40;;;;;;;4.55;2.00;;;;;;;;;;5002534;28;20072;-32
2022/01/31 14:55:14;;;;;;;6.43;1.75;;;;;;;;;;5003337;28;20053;-32
2022/01/31 14:57:39;;;;;;;3.90;2.15;;;;;;;;;;5002660;28;20037;-31
2022/01/31 15:00:07;;;;;;;7.82;1.50;;;;;;;;;;5003095;28;20527;-30
2022/01/31 15:02:34;;;;;;;4.60;1.80;;;;;;;;;;5002006;28;20053;-32
2022/01/31 15:05:06;;;;;;;9.35;1.70;;;;;;;;;;4989780;28;20027;-33
2022/01/31 15:07:32;;;;;;;3.83;1.88;;;;;;;;;;5002702;28;20028;-35
2022/01/31 15:09:58;;;;;;;5.55;2.00;;;;;;;;;;5002967;28;20038;-37
2022/01/31 15:12:23;;;;;;;6.93;1.80;;;;;;;;;;5004050;28;20200;-34
2022/01/31 15:14:49;;;;;;;5.00;2.13;;;;;;;;;;5003452;28;20412;-36
2022/01/31 15:17:14;;;;;;;6.53;1.50;;;;;;;;;;4997770;28;20037;-33
2022/01/31 15:19:40;;;;;;;6.47;1.77;;;;;;;;;;5002080;28;20037;-33
2022/01/31 15:22:06;;;;;;;5.53;1.63;;;;;;;;;;5004063;28;20026;-33